Language selection

My Weather Profile Weather Topics  | 

Queen Charlotte Sound - western half: Past 24 Hour Conditions

 

South Hecate Strait - 46185

07:00 PM PST 26 November 2022Buoy position: 52.53N 130.09W
Disclaimer

This table is a summary of hourly weather conditions for the past 24 hours.
Please note that these observations might not always be representative of weather conditions over their associated marine area.

Date / Time
(PST)
Wind(knots) Wave height(m) Wave period(s) Pressure(kPa) Air tempC) Water tempC)
26 November 2022
19:00 W 21 gust 27 2.2 5.4 101.3 6 9
18:00 WNW 19 gust 25 2.4 6.0 101.3 6 9
17:00 W 23 gust 28 2.6 6.4 101.2 6 9
16:00 N/A N/A N/A N/A N/A N/A
15:00 W 20 gust 26 2.7 6.6 101.1 6 9
14:00 WNW 21 gust 25 2.8 8.3 101.1 7 9
13:00 W 23 gust 30 3.1 7.5 101.0 8 9
12:00 W 24 gust 29 3.3 7.8 101.0 9 9
11:00 WSW 21 gust 26 3.1 8.5 100.9 9 9
10:00 SW 25 gust 32 2.9 6.7 100.9 9 9
9:00 SSW 24 gust 31 3.1 7.3 101.0 9 9
8:00 SSW 26 gust 32 2.8 7.3 101.2 9 9
7:00 SSW 24 gust 29 2.9 7.8 101.3 9 9
6:00 SSW 25 gust 32 2.6 7.8 101.4 9 9
5:00 SSW 24 gust 30 2.9 7.3 101.5 9 9
4:00 SW 26 gust 33 2.5 7.1 101.6 9 9
3:00 SSW 23 gust 28 2.4 6.6 101.7 9 9
2:00 SW 21 gust 25 2.2 6.1 101.8 9 9
1:00 SSW 22 gust 28 2.1 4.6 101.9 9 9
0:00 SSW 21 gust 25 1.9 8.3 101.9 9 9
25 November 2022
23:00 SSW 20 gust 26 1.8 9.1 102.0 8 9
22:00 SSW 18 gust 22 1.8 12.2 102.1 9 9
21:00 SSW 17 gust 19 1.7 12.8 102.1 9 9
20:00 SSW 14 gust 17 1.5 10.7 102.1 9 9
19:00 SW 15 gust 18 1.4 14.2 102.1 9 9

Zoom-in to make a selection

Map of Pacific - North Coast marine weather areas Middle Nomad - 46004 South Nomad - 46036 Dixon Entrance Central - 46145 South Moresby - 46147 Nanakwa Shoal - 46181 North Hecate Strait - 46183 North Nomad - 46184 South Hecate Strait - 46185 West Sea Otter - 46204 West Dixon Entrance - 46205 East Dellwood - 46207 West Moresby - 46208 Sartine Island Cape St.James Kindakun Rocks Langara Island Masset Municipal Airport Rose Spit Sandspit Airport Bella Bella Airport Bella Coola Airport Bonilla Island Cathedral Point Cumshewa Island Grey Islet Holland Rock Lucy Islands Lightstation Prince Rupert Airport
Legend:
buoy Buoy
land station Land Station

Pacific - North Coast Area

Another Region

What we are doing

Date modified: